sensor_id;sensor_type;location;lat;lon;timestamp;P1;durP1;ratioP1;P2;durP2;ratioP2
74920;SDS011;63483;47.384;8.860;2023-07-13T00:01:11;3.20;;;1.67;;
74920;SDS011;63483;47.384;8.860;2023-07-13T00:03:40;3.03;;;1.55;;
74920;SDS011;63483;47.384;8.860;2023-07-13T00:06:06;4.33;;;2.10;;
74920;SDS011;63483;47.384;8.860;2023-07-13T00:08:32;4.78;;;2.25;;
74920;SDS011;63483;47.384;8.860;2023-07-13T00:10:58;4.10;;;1.80;;
74920;SDS011;63483;47.384;8.860;2023-07-13T00:13:24;6.00;;;2.00;;
74920;SDS011;63483;47.384;8.860;2023-07-13T00:15:50;3.10;;;1.93;;
74920;SDS011;63483;47.384;8.860;2023-07-13T00:18:15;3.50;;;2.00;;
74920;SDS011;63483;47.384;8.860;2023-07-13T00:20:41;3.07;;;1.60;;
74920;SDS011;63483;47.384;8.860;2023-07-13T00:23:06;3.63;;;1.70;;
74920;SDS011;63483;47.384;8.860;2023-07-13T00:25:32;3.58;;;1.50;;
74920;SDS011;63483;47.384;8.860;2023-07-13T00:27:57;3.80;;;1.70;;
74920;SDS011;63483;47.384;8.860;2023-07-13T00:30:22;4.90;;;2.23;;
74920;SDS011;63483;47.384;8.860;2023-07-13T00:32:48;4.28;;;1.95;;
74920;SDS011;63483;47.384;8.860;2023-07-13T00:35:14;5.30;;;1.73;;
74920;SDS011;63483;47.384;8.860;2023-07-13T00:37:40;3.78;;;1.80;;
74920;SDS011;63483;47.384;8.860;2023-07-13T00:40:06;4.93;;;2.60;;
74920;SDS011;63483;47.384;8.860;2023-07-13T00:42:32;3.45;;;1.90;;
74920;SDS011;63483;47.384;8.860;2023-07-13T00:47:36;3.77;;;2.03;;
74920;SDS011;63483;47.384;8.860;2023-07-13T00:50:01;3.80;;;1.80;;
74920;SDS011;63483;47.384;8.860;2023-07-13T00:52:28;3.28;;;1.67;;
74920;SDS011;63483;47.384;8.860;2023-07-13T00:54:54;3.40;;;1.63;;
74920;SDS011;63483;47.384;8.860;2023-07-13T00:57:20;3.33;;;2.33;;
74920;SDS011;63483;47.384;8.860;2023-07-13T00:59:47;3.25;;;2.10;;
74920;SDS011;63483;47.384;8.860;2023-07-13T01:02:16;2.95;;;1.60;;
74920;SDS011;63483;47.384;8.860;2023-07-13T01:04:42;4.18;;;2.00;;
74920;SDS011;63483;47.384;8.860;2023-07-13T01:07:08;3.70;;;1.57;;
74920;SDS011;63483;47.384;8.860;2023-07-13T01:09:35;4.00;;;2.08;;
74920;SDS011;63483;47.384;8.860;2023-07-13T01:12:00;3.37;;;2.00;;
74920;SDS011;63483;47.384;8.860;2023-07-13T01:14:26;4.10;;;1.75;;
74920;SDS011;63483;47.384;8.860;2023-07-13T01:16:52;4.00;;;2.37;;
74920;SDS011;63483;47.384;8.860;2023-07-13T01:19:25;4.05;;;1.98;;
74920;SDS011;63483;47.384;8.860;2023-07-13T01:22:04;4.43;;;1.80;;
74920;SDS011;63483;47.384;8.860;2023-07-13T01:24:36;5.03;;;1.75;;
74920;SDS011;63483;47.384;8.860;2023-07-13T01:27:03;3.35;;;1.45;;
74920;SDS011;63483;47.384;8.860;2023-07-13T01:29:31;3.97;;;1.77;;
74920;SDS011;63483;47.384;8.860;2023-07-13T01:31:58;3.80;;;1.77;;
74920;SDS011;63483;47.384;8.860;2023-07-13T01:34:25;3.75;;;1.60;;
74920;SDS011;63483;47.384;8.860;2023-07-13T01:36:50;2.88;;;1.80;;
74920;SDS011;63483;47.384;8.860;2023-07-13T01:39:18;5.37;;;2.00;;
74920;SDS011;63483;47.384;8.860;2023-07-13T01:41:45;3.72;;;2.15;;
74920;SDS011;63483;47.384;8.860;2023-07-13T01:44:10;3.03;;;1.90;;
74920;SDS011;63483;47.384;8.860;2023-07-13T01:46:36;3.73;;;2.33;;
74920;SDS011;63483;47.384;8.860;2023-07-13T01:49:01;5.93;;;1.90;;
74920;SDS011;63483;47.384;8.860;2023-07-13T01:51:27;3.43;;;2.17;;
74920;SDS011;63483;47.384;8.860;2023-07-13T01:53:52;3.33;;;1.90;;
74920;SDS011;63483;47.384;8.860;2023-07-13T01:56:18;3.83;;;2.17;;
74920;SDS011;63483;47.384;8.860;2023-07-13T01:58:44;3.07;;;2.00;;
74920;SDS011;63483;47.384;8.860;2023-07-13T02:01:10;4.28;;;2.08;;
74920;SDS011;63483;47.384;8.860;2023-07-13T02:03:35;3.23;;;1.80;;
74920;SDS011;63483;47.384;8.860;2023-07-13T02:06:01;3.40;;;1.87;;
74920;SDS011;63483;47.384;8.860;2023-07-13T02:08:26;3.60;;;1.53;;
74920;SDS011;63483;47.384;8.860;2023-07-13T02:10:51;4.90;;;2.07;;
74920;SDS011;63483;47.384;8.860;2023-07-13T02:13:17;4.37;;;1.90;;
74920;SDS011;63483;47.384;8.860;2023-07-13T02:15:42;3.90;;;1.63;;
74920;SDS011;63483;47.384;8.860;2023-07-13T02:18:07;4.97;;;2.60;;
74920;SDS011;63483;47.384;8.860;2023-07-13T02:20:33;5.53;;;1.77;;
74920;SDS011;63483;47.384;8.860;2023-07-13T02:22:58;3.07;;;1.70;;
74920;SDS011;63483;47.384;8.860;2023-07-13T02:25:23;3.60;;;1.80;;
74920;SDS011;63483;47.384;8.860;2023-07-13T02:27:50;4.20;;;2.15;;
74920;SDS011;63483;47.384;8.860;2023-07-13T02:30:15;4.67;;;1.80;;
74920;SDS011;63483;47.384;8.860;2023-07-13T02:32:40;3.90;;;2.13;;
74920;SDS011;63483;47.384;8.860;2023-07-13T02:35:06;3.45;;;1.40;;
74920;SDS011;63483;47.384;8.860;2023-07-13T02:37:31;4.27;;;2.03;;
74920;SDS011;63483;47.384;8.860;2023-07-13T02:39:57;4.70;;;1.67;;
74920;SDS011;63483;47.384;8.860;2023-07-13T02:42:22;4.60;;;2.10;;
74920;SDS011;63483;47.384;8.860;2023-07-13T02:44:47;3.77;;;1.90;;
74920;SDS011;63483;47.384;8.860;2023-07-13T02:47:14;3.15;;;1.58;;
74920;SDS011;63483;47.384;8.860;2023-07-13T02:49:40;3.83;;;2.00;;
74920;SDS011;63483;47.384;8.860;2023-07-13T02:52:05;4.53;;;1.80;;
74920;SDS011;63483;47.384;8.860;2023-07-13T02:54:31;3.30;;;1.57;;
74920;SDS011;63483;47.384;8.860;2023-07-13T02:56:56;3.03;;;1.90;;
74920;SDS011;63483;47.384;8.860;2023-07-13T02:59:22;4.25;;;1.25;;
74920;SDS011;63483;47.384;8.860;2023-07-13T03:01:47;2.67;;;1.73;;
74920;SDS011;63483;47.384;8.860;2023-07-13T03:04:12;7.70;;;2.00;;
74920;SDS011;63483;47.384;8.860;2023-07-13T03:06:38;2.80;;;1.47;;
74920;SDS011;63483;47.384;8.860;2023-07-13T03:09:03;3.27;;;1.70;;
74920;SDS011;63483;47.384;8.860;2023-07-13T03:11:29;3.33;;;1.50;;
74920;SDS011;63483;47.384;8.860;2023-07-13T03:13:54;3.33;;;1.67;;
74920;SDS011;63483;47.384;8.860;2023-07-13T03:16:20;3.17;;;1.60;;
74920;SDS011;63483;47.384;8.860;2023-07-13T03:18:46;2.13;;;1.05;;
74920;SDS011;63483;47.384;8.860;2023-07-13T03:21:12;3.50;;;1.85;;
74920;SDS011;63483;47.384;8.860;2023-07-13T03:23:38;5.67;;;1.80;;
74920;SDS011;63483;47.384;8.860;2023-07-13T03:26:04;3.63;;;1.50;;
74920;SDS011;63483;47.384;8.860;2023-07-13T03:28:34;3.63;;;1.60;;
74920;SDS011;63483;47.384;8.860;2023-07-13T03:31:03;4.07;;;1.63;;
74920;SDS011;63483;47.384;8.860;2023-07-13T03:33:30;3.37;;;1.77;;
74920;SDS011;63483;47.384;8.860;2023-07-13T03:35:56;3.83;;;1.93;;
74920;SDS011;63483;47.384;8.860;2023-07-13T03:38:21;3.30;;;1.67;;
74920;SDS011;63483;47.384;8.860;2023-07-13T03:40:47;3.50;;;1.40;;
74920;SDS011;63483;47.384;8.860;2023-07-13T03:43:12;3.47;;;1.27;;
74920;SDS011;63483;47.384;8.860;2023-07-13T03:45:38;3.13;;;1.30;;
74920;SDS011;63483;47.384;8.860;2023-07-13T03:48:04;2.63;;;1.30;;
74920;SDS011;63483;47.384;8.860;2023-07-13T03:50:30;2.63;;;1.45;;
74920;SDS011;63483;47.384;8.860;2023-07-13T03:52:55;2.43;;;1.40;;
74920;SDS011;63483;47.384;8.860;2023-07-13T03:55:22;3.30;;;1.23;;
74920;SDS011;63483;47.384;8.860;2023-07-13T03:57:47;4.47;;;1.53;;
74920;SDS011;63483;47.384;8.860;2023-07-13T04:00:13;3.45;;;1.60;;
74920;SDS011;63483;47.384;8.860;2023-07-13T04:02:39;2.97;;;1.20;;
74920;SDS011;63483;47.384;8.860;2023-07-13T04:05:04;3.80;;;1.70;;
74920;SDS011;63483;47.384;8.860;2023-07-13T04:07:30;3.60;;;1.85;;
74920;SDS011;63483;47.384;8.860;2023-07-13T04:09:55;2.80;;;1.50;;
74920;SDS011;63483;47.384;8.860;2023-07-13T04:12:20;4.30;;;1.90;;
74920;SDS011;63483;47.384;8.860;2023-07-13T04:14:46;3.63;;;1.90;;
74920;SDS011;63483;47.384;8.860;2023-07-13T04:17:11;2.80;;;1.60;;
74920;SDS011;63483;47.384;8.860;2023-07-13T04:19:36;3.33;;;1.33;;
74920;SDS011;63483;47.384;8.860;2023-07-13T04:22:02;2.77;;;1.50;;
74920;SDS011;63483;47.384;8.860;2023-07-13T04:24:27;4.43;;;1.70;;
74920;SDS011;63483;47.384;8.860;2023-07-13T04:26:52;3.13;;;1.33;;
74920;SDS011;63483;47.384;8.860;2023-07-13T04:29:18;2.30;;;1.40;;
74920;SDS011;63483;47.384;8.860;2023-07-13T04:31:43;2.80;;;1.43;;
74920;SDS011;63483;47.384;8.860;2023-07-13T04:34:08;3.70;;;1.17;;
74920;SDS011;63483;47.384;8.860;2023-07-13T04:36:34;3.70;;;2.00;;
74920;SDS011;63483;47.384;8.860;2023-07-13T04:39:02;2.50;;;1.30;;
74920;SDS011;63483;47.384;8.860;2023-07-13T04:41:28;4.50;;;1.73;;
74920;SDS011;63483;47.384;8.860;2023-07-13T04:43:53;3.47;;;1.50;;
74920;SDS011;63483;47.384;8.860;2023-07-13T04:46:18;3.07;;;1.63;;
74920;SDS011;63483;47.384;8.860;2023-07-13T04:48:44;2.90;;;1.50;;
74920;SDS011;63483;47.384;8.860;2023-07-13T04:51:09;3.20;;;1.50;;
74920;SDS011;63483;47.384;8.860;2023-07-13T04:53:35;2.85;;;1.52;;
74920;SDS011;63483;47.384;8.860;2023-07-13T04:56:01;3.67;;;1.50;;
74920;SDS011;63483;47.384;8.860;2023-07-13T04:58:28;6.55;;;1.58;;
74920;SDS011;63483;47.384;8.860;2023-07-13T05:00:59;3.10;;;1.85;;
74920;SDS011;63483;47.384;8.860;2023-07-13T05:03:25;3.10;;;1.63;;
74920;SDS011;63483;47.384;8.860;2023-07-13T05:05:54;3.10;;;1.60;;
74920;SDS011;63483;47.384;8.860;2023-07-13T05:08:24;3.13;;;1.60;;
74920;SDS011;63483;47.384;8.860;2023-07-13T05:10:50;4.18;;;1.15;;
74920;SDS011;63483;47.384;8.860;2023-07-13T05:13:16;2.60;;;1.15;;
74920;SDS011;63483;47.384;8.860;2023-07-13T05:15:41;2.63;;;1.67;;
74920;SDS011;63483;47.384;8.860;2023-07-13T05:18:07;4.83;;;1.80;;
74920;SDS011;63483;47.384;8.860;2023-07-13T05:20:32;3.90;;;1.53;;
74920;SDS011;63483;47.384;8.860;2023-07-13T05:22:57;3.50;;;1.37;;
74920;SDS011;63483;47.384;8.860;2023-07-13T05:25:23;3.17;;;1.57;;
74920;SDS011;63483;47.384;8.860;2023-07-13T05:27:48;2.42;;;1.33;;
74920;SDS011;63483;47.384;8.860;2023-07-13T05:30:14;3.37;;;2.23;;
74920;SDS011;63483;47.384;8.860;2023-07-13T05:32:39;3.67;;;2.03;;
74920;SDS011;63483;47.384;8.860;2023-07-13T05:35:06;3.58;;;1.95;;
74920;SDS011;63483;47.384;8.860;2023-07-13T05:37:32;3.22;;;1.55;;
74920;SDS011;63483;47.384;8.860;2023-07-13T05:39:57;3.03;;;1.90;;
74920;SDS011;63483;47.384;8.860;2023-07-13T05:42:22;3.00;;;1.47;;
74920;SDS011;63483;47.384;8.860;2023-07-13T05:44:48;5.93;;;1.67;;
74920;SDS011;63483;47.384;8.860;2023-07-13T05:47:13;3.60;;;1.45;;
74920;SDS011;63483;47.384;8.860;2023-07-13T05:49:40;2.53;;;1.57;;
74920;SDS011;63483;47.384;8.860;2023-07-13T05:52:05;3.22;;;1.60;;
74920;SDS011;63483;47.384;8.860;2023-07-13T05:54:31;3.60;;;1.60;;
74920;SDS011;63483;47.384;8.860;2023-07-13T05:56:56;5.50;;;2.00;;
74920;SDS011;63483;47.384;8.860;2023-07-13T05:59:21;3.70;;;1.83;;
74920;SDS011;63483;47.384;8.860;2023-07-13T06:01:47;2.93;;;1.47;;
74920;SDS011;63483;47.384;8.860;2023-07-13T06:04:12;3.00;;;1.37;;
74920;SDS011;63483;47.384;8.860;2023-07-13T06:06:37;2.70;;;1.63;;
74920;SDS011;63483;47.384;8.860;2023-07-13T06:09:03;3.63;;;1.50;;
74920;SDS011;63483;47.384;8.860;2023-07-13T06:11:28;4.07;;;1.43;;
74920;SDS011;63483;47.384;8.860;2023-07-13T06:13:55;3.95;;;1.60;;
74920;SDS011;63483;47.384;8.860;2023-07-13T06:16:21;3.63;;;1.70;;
74920;SDS011;63483;47.384;8.860;2023-07-13T06:18:46;3.30;;;1.47;;
74920;SDS011;63483;47.384;8.860;2023-07-13T06:21:15;3.13;;;1.80;;
74920;SDS011;63483;47.384;8.860;2023-07-13T06:23:41;3.45;;;1.48;;
74920;SDS011;63483;47.384;8.860;2023-07-13T06:26:07;3.10;;;1.58;;
74920;SDS011;63483;47.384;8.860;2023-07-13T06:28:33;4.10;;;2.00;;
74920;SDS011;63483;47.384;8.860;2023-07-13T06:31:00;5.05;;;1.88;;
74920;SDS011;63483;47.384;8.860;2023-07-13T06:33:25;3.27;;;1.50;;
74920;SDS011;63483;47.384;8.860;2023-07-13T06:35:51;3.80;;;1.70;;
74920;SDS011;63483;47.384;8.860;2023-07-13T06:38:17;2.50;;;1.63;;
74920;SDS011;63483;47.384;8.860;2023-07-13T06:40:42;3.23;;;2.00;;
74920;SDS011;63483;47.384;8.860;2023-07-13T06:43:07;2.47;;;1.20;;
74920;SDS011;63483;47.384;8.860;2023-07-13T06:45:40;3.60;;;2.07;;
74920;SDS011;63483;47.384;8.860;2023-07-13T06:48:07;3.35;;;1.65;;
74920;SDS011;63483;47.384;8.860;2023-07-13T06:50:33;3.37;;;1.77;;
74920;SDS011;63483;47.384;8.860;2023-07-13T06:52:58;5.55;;;1.67;;
74920;SDS011;63483;47.384;8.860;2023-07-13T06:55:24;3.28;;;1.63;;
74920;SDS011;63483;47.384;8.860;2023-07-13T06:57:50;3.00;;;1.40;;
74920;SDS011;63483;47.384;8.860;2023-07-13T07:00:15;3.10;;;1.83;;
74920;SDS011;63483;47.384;8.860;2023-07-13T07:02:41;3.38;;;1.85;;
74920;SDS011;63483;47.384;8.860;2023-07-13T07:05:06;3.80;;;2.17;;
74920;SDS011;63483;47.384;8.860;2023-07-13T07:07:32;2.20;;;1.17;;
74920;SDS011;63483;47.384;8.860;2023-07-13T07:09:57;3.20;;;1.77;;
74920;SDS011;63483;47.384;8.860;2023-07-13T07:12:22;2.50;;;1.53;;
74920;SDS011;63483;47.384;8.860;2023-07-13T07:14:47;3.20;;;1.60;;
74920;SDS011;63483;47.384;8.860;2023-07-13T07:17:13;2.83;;;1.43;;
74920;SDS011;63483;47.384;8.860;2023-07-13T07:19:38;3.70;;;1.90;;
74920;SDS011;63483;47.384;8.860;2023-07-13T07:22:03;4.17;;;1.53;;
74920;SDS011;63483;47.384;8.860;2023-07-13T07:24:29;3.70;;;1.60;;
74920;SDS011;63483;47.384;8.860;2023-07-13T07:26:54;3.33;;;2.13;;
74920;SDS011;63483;47.384;8.860;2023-07-13T07:29:19;3.77;;;2.10;;
74920;SDS011;63483;47.384;8.860;2023-07-13T07:31:45;5.33;;;2.37;;
74920;SDS011;63483;47.384;8.860;2023-07-13T07:34:10;3.30;;;1.73;;
74920;SDS011;63483;47.384;8.860;2023-07-13T07:36:35;2.93;;;2.07;;
74920;SDS011;63483;47.384;8.860;2023-07-13T07:39:00;4.30;;;1.63;;
74920;SDS011;63483;47.384;8.860;2023-07-13T07:41:26;4.33;;;1.50;;
74920;SDS011;63483;47.384;8.860;2023-07-13T07:43:51;3.20;;;1.83;;
74920;SDS011;63483;47.384;8.860;2023-07-13T07:46:16;3.03;;;1.33;;
74920;SDS011;63483;47.384;8.860;2023-07-13T07:48:42;2.57;;;1.30;;
74920;SDS011;63483;47.384;8.860;2023-07-13T07:51:07;4.43;;;1.97;;
74920;SDS011;63483;47.384;8.860;2023-07-13T07:53:32;4.97;;;2.20;;
74920;SDS011;63483;47.384;8.860;2023-07-13T07:55:58;3.07;;;1.57;;
74920;SDS011;63483;47.384;8.860;2023-07-13T07:58:23;3.60;;;1.80;;
74920;SDS011;63483;47.384;8.860;2023-07-13T08:00:48;2.10;;;1.13;;
74920;SDS011;63483;47.384;8.860;2023-07-13T08:03:13;3.83;;;1.87;;
74920;SDS011;63483;47.384;8.860;2023-07-13T08:05:39;3.33;;;1.30;;
74920;SDS011;63483;47.384;8.860;2023-07-13T08:08:04;2.17;;;1.20;;
74920;SDS011;63483;47.384;8.860;2023-07-13T08:10:29;2.17;;;1.37;;
74920;SDS011;63483;47.384;8.860;2023-07-13T08:12:55;2.63;;;1.10;;
74920;SDS011;63483;47.384;8.860;2023-07-13T08:15:20;2.73;;;1.27;;
74920;SDS011;63483;47.384;8.860;2023-07-13T08:17:47;2.47;;;1.17;;
74920;SDS011;63483;47.384;8.860;2023-07-13T08:20:13;3.08;;;1.35;;
74920;SDS011;63483;47.384;8.860;2023-07-13T08:22:39;2.17;;;1.30;;
74920;SDS011;63483;47.384;8.860;2023-07-13T08:25:05;3.07;;;1.17;;
74920;SDS011;63483;47.384;8.860;2023-07-13T08:27:30;2.33;;;1.23;;
74920;SDS011;63483;47.384;8.860;2023-07-13T08:29:56;2.13;;;1.00;;
74920;SDS011;63483;47.384;8.860;2023-07-13T08:32:22;2.50;;;1.30;;
74920;SDS011;63483;47.384;8.860;2023-07-13T08:34:48;2.42;;;1.38;;
74920;SDS011;63483;47.384;8.860;2023-07-13T08:37:14;3.13;;;1.50;;
74920;SDS011;63483;47.384;8.860;2023-07-13T08:39:40;2.67;;;1.30;;
74920;SDS011;63483;47.384;8.860;2023-07-13T08:42:07;2.80;;;0.98;;
74920;SDS011;63483;47.384;8.860;2023-07-13T08:44:42;2.17;;;1.03;;
74920;SDS011;63483;47.384;8.860;2023-07-13T08:47:22;2.90;;;1.40;;
74920;SDS011;63483;47.384;8.860;2023-07-13T08:49:49;2.03;;;1.20;;
74920;SDS011;63483;47.384;8.860;2023-07-13T08:52:17;3.10;;;1.02;;
74920;SDS011;63483;47.384;8.860;2023-07-13T08:54:55;2.13;;;1.38;;
74920;SDS011;63483;47.384;8.860;2023-07-13T08:57:24;3.37;;;1.33;;
74920;SDS011;63483;47.384;8.860;2023-07-13T08:59:56;2.40;;;1.30;;
74920;SDS011;63483;47.384;8.860;2023-07-13T09:02:27;2.67;;;0.93;;
74920;SDS011;63483;47.384;8.860;2023-07-13T09:05:08;2.35;;;1.10;;
74920;SDS011;63483;47.384;8.860;2023-07-13T09:10:32;2.43;;;1.00;;
74920;SDS011;63483;47.384;8.860;2023-07-13T09:13:23;1.70;;;0.82;;
74920;SDS011;63483;47.384;8.860;2023-07-13T09:15:57;1.83;;;1.05;;
74920;SDS011;63483;47.384;8.860;2023-07-13T09:21:14;2.00;;;0.80;;
74920;SDS011;63483;47.384;8.860;2023-07-13T09:23:43;2.13;;;0.90;;
74920;SDS011;63483;47.384;8.860;2023-07-13T09:28:46;2.65;;;0.75;;
74920;SDS011;63483;47.384;8.860;2023-07-13T09:31:28;1.73;;;0.60;;
74920;SDS011;63483;47.384;8.860;2023-07-13T09:34:00;2.43;;;0.50;;
74920;SDS011;63483;47.384;8.860;2023-07-13T09:36:29;1.65;;;0.82;;
74920;SDS011;63483;47.384;8.860;2023-07-13T09:39:02;1.63;;;0.80;;
74920;SDS011;63483;47.384;8.860;2023-07-13T09:41:32;3.40;;;0.97;;
74920;SDS011;63483;47.384;8.860;2023-07-13T09:44:14;1.40;;;0.63;;
74920;SDS011;63483;47.384;8.860;2023-07-13T09:46:47;2.13;;;0.95;;
74920;SDS011;63483;47.384;8.860;2023-07-13T09:49:17;2.15;;;0.88;;
74920;SDS011;63483;47.384;8.860;2023-07-13T09:51:43;1.60;;;0.70;;
74920;SDS011;63483;47.384;8.860;2023-07-13T09:54:19;1.50;;;0.70;;
74920;SDS011;63483;47.384;8.860;2023-07-13T09:56:45;1.77;;;0.80;;
74920;SDS011;63483;47.384;8.860;2023-07-13T10:02:01;3.13;;;0.93;;
74920;SDS011;63483;47.384;8.860;2023-07-13T10:04:31;3.73;;;1.20;;
74920;SDS011;63483;47.384;8.860;2023-07-13T10:07:11;2.90;;;0.80;;
74920;SDS011;63483;47.384;8.860;2023-07-13T10:09:40;1.85;;;1.08;;
74920;SDS011;63483;47.384;8.860;2023-07-13T10:12:13;1.57;;;0.60;;
74920;SDS011;63483;47.384;8.860;2023-07-13T10:14:39;1.73;;;0.68;;
74920;SDS011;63483;47.384;8.860;2023-07-13T10:17:08;1.60;;;0.65;;
74920;SDS011;63483;47.384;8.860;2023-07-13T10:19:38;1.70;;;1.03;;
74920;SDS011;63483;47.384;8.860;2023-07-13T10:24:51;1.77;;;0.90;;
74920;SDS011;63483;47.384;8.860;2023-07-13T10:27:18;2.35;;;1.10;;
74920;SDS011;63483;47.384;8.860;2023-07-13T10:29:49;2.27;;;1.00;;
74920;SDS011;63483;47.384;8.860;2023-07-13T10:32:24;2.92;;;0.98;;
74920;SDS011;63483;47.384;8.860;2023-07-13T10:34:50;1.88;;;0.80;;
74920;SDS011;63483;47.384;8.860;2023-07-13T10:37:21;1.58;;;0.70;;
74920;SDS011;63483;47.384;8.860;2023-07-13T10:39:50;1.98;;;0.85;;
74920;SDS011;63483;47.384;8.860;2023-07-13T10:42:24;2.10;;;0.97;;
74920;SDS011;63483;47.384;8.860;2023-07-13T10:44:54;1.77;;;0.90;;
74920;SDS011;63483;47.384;8.860;2023-07-13T10:47:19;1.70;;;0.90;;
74920;SDS011;63483;47.384;8.860;2023-07-13T10:49:44;1.80;;;1.08;;
74920;SDS011;63483;47.384;8.860;2023-07-13T10:55:10;1.73;;;0.68;;
74920;SDS011;63483;47.384;8.860;2023-07-13T10:58:20;1.45;;;0.70;;
74920;SDS011;63483;47.384;8.860;2023-07-13T11:01:10;2.30;;;0.80;;
74920;SDS011;63483;47.384;8.860;2023-07-13T11:13:56;1.92;;;1.10;;
74920;SDS011;63483;47.384;8.860;2023-07-13T11:21:29;1.70;;;0.73;;
74920;SDS011;63483;47.384;8.860;2023-07-13T11:24:03;2.78;;;1.08;;
74920;SDS011;63483;47.384;8.860;2023-07-13T11:26:42;2.55;;;1.13;;
74920;SDS011;63483;47.384;8.860;2023-07-13T11:29:27;1.60;;;1.10;;
74920;SDS011;63483;47.384;8.860;2023-07-13T11:31:57;2.58;;;1.38;;
74920;SDS011;63483;47.384;8.860;2023-07-13T11:34:26;2.17;;;1.10;;
74920;SDS011;63483;47.384;8.860;2023-07-13T11:36:55;2.25;;;1.25;;
74920;SDS011;63483;47.384;8.860;2023-07-13T11:39:26;3.33;;;1.10;;
74920;SDS011;63483;47.384;8.860;2023-07-13T11:42:03;3.38;;;1.00;;
74920;SDS011;63483;47.384;8.860;2023-07-13T11:44:32;2.70;;;1.17;;
74920;SDS011;63483;47.384;8.860;2023-07-13T11:47:00;2.50;;;1.40;;
74920;SDS011;63483;47.384;8.860;2023-07-13T11:49:44;2.90;;;1.25;;
74920;SDS011;63483;47.384;8.860;2023-07-13T11:52:14;1.77;;;1.00;;
74920;SDS011;63483;47.384;8.860;2023-07-13T11:54:46;2.38;;;1.50;;
74920;SDS011;63483;47.384;8.860;2023-07-13T11:57:33;2.55;;;0.85;;
74920;SDS011;63483;47.384;8.860;2023-07-13T12:00:13;2.50;;;0.90;;
74920;SDS011;63483;47.384;8.860;2023-07-13T12:02:42;3.60;;;1.08;;
74920;SDS011;63483;47.384;8.860;2023-07-13T12:05:14;2.17;;;0.85;;
74920;SDS011;63483;47.384;8.860;2023-07-13T12:07:42;2.15;;;1.05;;
74920;SDS011;63483;47.384;8.860;2023-07-13T12:12:34;1.33;;;0.80;;
74920;SDS011;63483;47.384;8.860;2023-07-13T12:15:04;1.88;;;1.27;;
74920;SDS011;63483;47.384;8.860;2023-07-13T12:17:30;2.00;;;0.70;;
74920;SDS011;63483;47.384;8.860;2023-07-13T12:19:56;2.13;;;1.10;;
74920;SDS011;63483;47.384;8.860;2023-07-13T12:22:22;2.28;;;1.00;;
74920;SDS011;63483;47.384;8.860;2023-07-13T12:24:48;3.17;;;0.90;;
74920;SDS011;63483;47.384;8.860;2023-07-13T12:27:23;3.00;;;1.45;;
74920;SDS011;63483;47.384;8.860;2023-07-13T12:29:58;1.40;;;0.73;;
74920;SDS011;63483;47.384;8.860;2023-07-13T12:32:24;3.73;;;1.13;;
74920;SDS011;63483;47.384;8.860;2023-07-13T12:34:55;2.17;;;1.08;;
74920;SDS011;63483;47.384;8.860;2023-07-13T12:37:22;2.30;;;1.02;;
74920;SDS011;63483;47.384;8.860;2023-07-13T12:39:48;1.85;;;1.00;;
74920;SDS011;63483;47.384;8.860;2023-07-13T12:44:52;2.80;;;1.00;;
74920;SDS011;63483;47.384;8.860;2023-07-13T12:47:21;2.10;;;1.02;;
74920;SDS011;63483;47.384;8.860;2023-07-13T12:49:57;4.22;;;1.45;;
74920;SDS011;63483;47.384;8.860;2023-07-13T12:52:28;1.92;;;1.15;;
74920;SDS011;63483;47.384;8.860;2023-07-13T12:55:02;3.28;;;1.13;;
74920;SDS011;63483;47.384;8.860;2023-07-13T12:57:30;1.93;;;1.00;;
74920;SDS011;63483;47.384;8.860;2023-07-13T12:59:55;1.83;;;0.90;;
74920;SDS011;63483;47.384;8.860;2023-07-13T13:04:57;2.45;;;1.25;;
74920;SDS011;63483;47.384;8.860;2023-07-13T13:07:24;2.30;;;1.10;;
74920;SDS011;63483;47.384;8.860;2023-07-13T13:09:50;1.80;;;1.00;;
74920;SDS011;63483;47.384;8.860;2023-07-13T13:12:16;1.75;;;1.10;;
74920;SDS011;63483;47.384;8.860;2023-07-13T13:14:42;2.58;;;1.20;;
74920;SDS011;63483;47.384;8.860;2023-07-13T13:17:15;2.07;;;0.90;;
74920;SDS011;63483;47.384;8.860;2023-07-13T13:19:44;1.95;;;1.38;;
74920;SDS011;63483;47.384;8.860;2023-07-13T13:22:10;2.45;;;0.90;;
74920;SDS011;63483;47.384;8.860;2023-07-13T13:24:36;1.83;;;1.13;;
74920;SDS011;63483;47.384;8.860;2023-07-13T13:27:01;2.47;;;1.17;;
74920;SDS011;63483;47.384;8.860;2023-07-13T13:29:27;2.92;;;0.90;;
74920;SDS011;63483;47.384;8.860;2023-07-13T13:31:53;1.70;;;1.30;;
74920;SDS011;63483;47.384;8.860;2023-07-13T13:34:20;2.75;;;1.10;;
74920;SDS011;63483;47.384;8.860;2023-07-13T13:36:48;3.58;;;1.10;;
74920;SDS011;63483;47.384;8.860;2023-07-13T13:39:22;2.33;;;1.17;;
74920;SDS011;63483;47.384;8.860;2023-07-13T13:41:50;4.65;;;1.80;;
74920;SDS011;63483;47.384;8.860;2023-07-13T13:44:17;5.03;;;1.70;;
74920;SDS011;63483;47.384;8.860;2023-07-13T13:46:47;5.35;;;1.55;;
74920;SDS011;63483;47.384;8.860;2023-07-13T13:49:16;2.85;;;1.42;;
74920;SDS011;63483;47.384;8.860;2023-07-13T13:51:45;3.35;;;1.77;;
74920;SDS011;63483;47.384;8.860;2023-07-13T13:54:14;3.08;;;1.55;;
74920;SDS011;63483;47.384;8.860;2023-07-13T13:56:41;3.17;;;1.57;;
74920;SDS011;63483;47.384;8.860;2023-07-13T13:59:08;2.95;;;1.38;;
74920;SDS011;63483;47.384;8.860;2023-07-13T14:01:34;3.10;;;1.17;;
74920;SDS011;63483;47.384;8.860;2023-07-13T14:04:00;2.10;;;1.20;;
74920;SDS011;63483;47.384;8.860;2023-07-13T14:06:25;2.20;;;1.27;;
74920;SDS011;63483;47.384;8.860;2023-07-13T14:08:50;2.25;;;0.95;;
74920;SDS011;63483;47.384;8.860;2023-07-13T14:11:16;2.27;;;1.13;;
74920;SDS011;63483;47.384;8.860;2023-07-13T14:13:50;2.27;;;1.20;;
74920;SDS011;63483;47.384;8.860;2023-07-13T14:16:19;2.05;;;1.23;;
74920;SDS011;63483;47.384;8.860;2023-07-13T14:18:47;2.83;;;1.27;;
74920;SDS011;63483;47.384;8.860;2023-07-13T14:21:14;1.88;;;1.00;;
74920;SDS011;63483;47.384;8.860;2023-07-13T14:23:41;2.20;;;1.40;;
74920;SDS011;63483;47.384;8.860;2023-07-13T14:26:09;2.47;;;0.90;;
74920;SDS011;63483;47.384;8.860;2023-07-13T14:28:37;2.10;;;1.40;;
74920;SDS011;63483;47.384;8.860;2023-07-13T14:31:06;2.88;;;1.30;;
74920;SDS011;63483;47.384;8.860;2023-07-13T14:33:31;2.33;;;1.20;;
74920;SDS011;63483;47.384;8.860;2023-07-13T14:35:57;2.27;;;1.20;;
74920;SDS011;63483;47.384;8.860;2023-07-13T14:38:22;3.37;;;1.40;;
74920;SDS011;63483;47.384;8.860;2023-07-13T14:40:47;2.50;;;1.53;;
74920;SDS011;63483;47.384;8.860;2023-07-13T14:43:13;2.80;;;1.30;;
74920;SDS011;63483;47.384;8.860;2023-07-13T14:45:40;2.57;;;1.40;;
74920;SDS011;63483;47.384;8.860;2023-07-13T14:48:14;2.63;;;1.13;;
74920;SDS011;63483;47.384;8.860;2023-07-13T14:50:44;2.42;;;1.30;;
74920;SDS011;63483;47.384;8.860;2023-07-13T14:53:10;3.55;;;1.50;;
74920;SDS011;63483;47.384;8.860;2023-07-13T14:55:36;2.40;;;1.37;;
74920;SDS011;63483;47.384;8.860;2023-07-13T14:58:02;2.27;;;1.17;;
74920;SDS011;63483;47.384;8.860;2023-07-13T15:00:27;2.87;;;1.40;;
74920;SDS011;63483;47.384;8.860;2023-07-13T15:02:54;3.07;;;1.53;;
74920;SDS011;63483;47.384;8.860;2023-07-13T15:05:24;2.38;;;1.13;;
74920;SDS011;63483;47.384;8.860;2023-07-13T15:07:54;1.88;;;1.00;;
74920;SDS011;63483;47.384;8.860;2023-07-13T15:10:22;3.20;;;1.83;;
74920;SDS011;63483;47.384;8.860;2023-07-13T15:12:51;3.08;;;1.50;;
74920;SDS011;63483;47.384;8.860;2023-07-13T15:15:17;2.53;;;1.33;;
74920;SDS011;63483;47.384;8.860;2023-07-13T15:17:43;2.47;;;1.50;;
74920;SDS011;63483;47.384;8.860;2023-07-13T15:20:21;2.43;;;1.17;;
74920;SDS011;63483;47.384;8.860;2023-07-13T15:22:49;2.80;;;1.30;;
74920;SDS011;63483;47.384;8.860;2023-07-13T15:25:16;3.95;;;1.50;;
74920;SDS011;63483;47.384;8.860;2023-07-13T15:27:44;3.35;;;1.38;;
74920;SDS011;63483;47.384;8.860;2023-07-13T15:30:10;2.77;;;1.63;;
74920;SDS011;63483;47.384;8.860;2023-07-13T15:32:36;1.98;;;1.30;;